Time;durP1;ratioP1;P1;durP2;ratioP2;P2;SDS_P1;SDS_P2;PMS_P1;PMS_P2;Temp;Humidity;BMP_temperature;BMP_pressure;BME280_temperature;BME280_humidity;BME280_pressure;Samples;Min_cycle;Max_cycle;Signal;HPM_P1;HPM_P2
2021/12/25 00:02:08;;;;;;;97.45;45.90;;;5.30;99.90;;;;;;5014287;28;20030;-81
2021/12/25 00:04:34;;;;;;;96.75;45.83;;;5.30;99.90;;;;;;5014323;28;20045;-81
2021/12/25 00:07:00;;;;;;;90.50;45.40;;;5.30;99.90;;;;;;5031837;28;20061;-82
2021/12/25 00:09:26;;;;;;;99.10;46.90;;;5.30;99.90;;;;;;5031411;28;20649;-82
2021/12/25 00:11:52;;;;;;;92.53;47.00;;;5.30;99.90;;;;;;5010177;28;20075;-82
2021/12/25 00:14:18;;;;;;;91.28;44.15;;;5.30;99.90;;;;;;5014304;28;20112;-82
2021/12/25 00:16:45;;;;;;;94.38;46.70;;;5.30;99.90;;;;;;5031672;28;20724;-81
2021/12/25 00:19:10;;;;;;;91.95;46.22;;;5.30;99.90;;;;;;5031583;28;20646;-83
2021/12/25 00:21:36;;;;;;;94.45;46.25;;;5.30;99.90;;;;;;5013673;28;20032;-82
2021/12/25 00:24:03;;;;;;;149.50;76.03;;;5.30;99.90;;;;;;5031864;28;20481;-82
2021/12/25 00:26:43;;;;;;;252.70;147.65;;;5.40;99.90;;;;;;5031683;28;20073;-82
2021/12/25 00:31:57;;;;;;;189.02;95.97;;;5.50;99.90;;;;;;5032050;28;20048;-82
2021/12/25 00:34:23;;;;;;;223.55;124.03;;;5.50;99.90;;;;;;5031575;28;20075;-82
2021/12/25 00:36:50;;;;;;;108.90;58.13;;;5.50;99.90;;;;;;5032094;28;20079;-82
2021/12/25 00:39:16;;;;;;;103.95;53.47;;;5.50;99.90;;;;;;5031640;28;20021;-81
2021/12/25 00:41:42;;;;;;;104.35;50.10;;;5.50;99.90;;;;;;5032136;28;20404;-82
2021/12/25 00:44:07;;;;;;;95.45;46.55;;;5.40;99.90;;;;;;5032026;28;20030;-82
2021/12/25 00:46:33;;;;;;;94.20;47.95;;;5.40;99.90;;;;;;5027843;28;20040;-82
2021/12/25 00:48:59;;;;;;;96.90;47.13;;;5.40;99.90;;;;;;5017594;28;20033;-82
2021/12/25 00:51:25;;;;;;;89.57;43.85;;;5.40;99.90;;;;;;5035148;28;20025;-82
2021/12/25 00:53:51;;;;;;;88.28;43.80;;;5.40;99.90;;;;;;5035392;28;20100;-82
2021/12/25 00:56:17;;;;;;;93.75;43.47;;;5.40;99.90;;;;;;5017608;28;20021;-82
2021/12/25 00:58:43;;;;;;;91.72;46.00;;;5.40;99.90;;;;;;5035379;28;20026;-82
2021/12/25 01:01:08;;;;;;;90.30;44.88;;;5.40;99.90;;;;;;5017095;28;20775;-82
2021/12/25 01:03:34;;;;;;;90.50;43.95;;;5.40;99.90;;;;;;5017437;28;20056;-82
2021/12/25 01:06:00;;;;;;;93.28;44.95;;;5.30;99.90;;;;;;5035098;28;20496;-82
2021/12/25 01:08:26;;;;;;;90.90;44.33;;;5.30;99.90;;;;;;5034860;28;20105;-81
2021/12/25 01:10:52;;;;;;;94.93;45.72;;;5.30;99.90;;;;;;5034572;28;20039;-82
2021/12/25 01:13:28;;;;;;;100.43;47.60;;;5.20;99.90;;;;;;5019992;28;20030;-82
2021/12/25 01:29:31;;;;;;;610.40;343.27;;;5.40;99.90;;;;;;5034549;28;20513;-82
2021/12/25 01:48:24;;;;;;;95.55;46.55;;;5.40;99.90;;;;;;5034528;28;20088;-82
2021/12/25 01:50:51;;;;;;;87.68;43.70;;;5.40;99.90;;;;;;5028441;28;20036;-82
2021/12/25 01:53:17;;;;;;;102.10;44.35;;;5.40;99.90;;;;;;5034287;28;20032;-82
2021/12/25 01:55:43;;;;;;;88.65;42.78;;;5.40;99.90;;;;;;5034146;28;21260;-82
2021/12/25 01:58:08;;;;;;;86.45;41.42;;;5.40;99.90;;;;;;5033332;28;20063;-82
2021/12/25 02:00:46;;;;;;;86.80;42.05;;;5.40;99.90;;;;;;5033875;28;20034;-82
2021/12/25 02:03:15;;;;;;;83.53;42.63;;;5.40;99.90;;;;;;5033842;28;20476;-82
2021/12/25 02:05:41;;;;;;;93.35;42.03;;;5.40;99.90;;;;;;5016178;28;20060;-83
2021/12/25 02:08:07;;;;;;;84.97;42.15;;;5.40;99.90;;;;;;5028164;28;20467;-82
2021/12/25 02:10:33;;;;;;;95.22;45.17;;;5.30;99.90;;;;;;5021387;28;20034;-82
2021/12/25 02:12:59;;;;;;;81.70;41.88;;;5.30;99.90;;;;;;5016111;28;20045;-82
2021/12/25 02:15:27;;;;;;;87.88;41.05;;;5.30;99.90;;;;;;5033996;28;20501;-82
2021/12/25 02:20:32;;;;;;;87.65;41.83;;;5.30;99.90;;;;;;5033475;28;20021;-82
2021/12/25 02:23:04;;;;;;;90.47;43.00;;;5.30;99.90;;;;;;5015893;28;20108;-82
2021/12/25 02:25:35;;;;;;;94.18;44.20;;;5.30;99.90;;;;;;5015880;28;20054;-83
2021/12/25 02:28:03;;;;;;;93.65;44.28;;;5.30;99.90;;;;;;5010021;28;20116;-82
2021/12/25 02:30:28;;;;;;;83.72;40.78;;;5.30;99.90;;;;;;5033445;28;20533;-82
2021/12/25 02:32:58;;;;;;;88.30;43.75;;;5.40;99.90;;;;;;5033541;28;20040;-82
2021/12/25 02:35:25;;;;;;;86.43;42.55;;;5.40;99.90;;;;;;5033417;28;20108;-82
2021/12/25 02:37:51;;;;;;;90.45;43.80;;;5.30;99.90;;;;;;5033067;28;20021;-82
2021/12/25 02:40:17;;;;;;;96.47;43.60;;;5.30;99.90;;;;;;5032695;28;20387;-82
2021/12/25 02:42:43;;;;;;;87.85;42.78;;;5.30;99.90;;;;;;5010653;28;20026;-82
2021/12/25 02:45:17;;;;;;;95.70;45.38;;;5.30;99.90;;;;;;5015463;28;20025;-82
2021/12/25 02:47:44;;;;;;;88.53;42.90;;;5.30;99.90;;;;;;5010006;28;20037;-83
2021/12/25 02:50:11;;;;;;;89.28;45.40;;;5.30;99.90;;;;;;5014177;28;20418;-82
2021/12/25 02:52:38;;;;;;;92.50;43.63;;;5.30;99.90;;;;;;5028815;28;20029;-83
2021/12/25 02:55:06;;;;;;;86.32;41.85;;;5.30;99.90;;;;;;5033397;28;20032;-82
2021/12/25 02:57:32;;;;;;;91.15;44.13;;;5.30;99.90;;;;;;5027369;28;20037;-82
2021/12/25 02:59:58;;;;;;;88.13;43.80;;;5.30;99.90;;;;;;5032481;28;20664;-82
2021/12/25 03:02:24;;;;;;;90.13;43.53;;;5.30;99.90;;;;;;5015408;28;20502;-83
2021/12/25 03:04:50;;;;;;;88.45;43.78;;;5.30;99.90;;;;;;5033024;28;20022;-83
2021/12/25 03:07:16;;;;;;;92.05;43.78;;;5.30;99.90;;;;;;5032719;28;20108;-82
2021/12/25 03:09:43;;;;;;;94.68;42.70;;;5.30;99.90;;;;;;5014653;28;20072;-82
2021/12/25 03:12:13;;;;;;;90.20;42.13;;;5.30;99.90;;;;;;5014730;28;20092;-82
2021/12/25 03:15:02;;;;;;;91.35;44.10;;;5.30;99.90;;;;;;5032919;28;20021;-83
2021/12/25 03:17:28;;;;;;;102.40;45.88;;;5.30;99.90;;;;;;5032373;28;20022;-83
2021/12/25 03:19:55;;;;;;;92.68;46.25;;;5.30;99.90;;;;;;5032591;28;20032;-83
2021/12/25 03:22:21;;;;;;;96.47;44.92;;;5.30;99.90;;;;;;5032674;28;20499;-83
2021/12/25 03:24:47;;;;;;;92.55;44.50;;;5.30;99.90;;;;;;5032681;28;20057;-83
2021/12/25 03:27:13;;;;;;;93.85;43.40;;;5.30;99.90;;;;;;5032181;28;20506;-83
2021/12/25 03:29:41;;;;;;;90.85;44.47;;;5.30;99.90;;;;;;5014999;28;20156;-83
2021/12/25 03:32:08;;;;;;;98.47;43.90;;;5.30;99.90;;;;;;5026638;28;20028;-82
2021/12/25 03:34:34;;;;;;;98.13;45.30;;;5.30;99.90;;;;;;5032685;28;20022;-83
2021/12/25 03:37:00;;;;;;;91.50;43.45;;;5.30;99.90;;;;;;5032195;28;20485;-82
2021/12/25 03:39:26;;;;;;;98.70;45.55;;;5.20;99.90;;;;;;5014938;28;20030;-82
2021/12/25 03:41:52;;;;;;;94.43;44.70;;;5.20;99.90;;;;;;5026726;28;20091;-82
2021/12/25 03:44:17;;;;;;;88.90;45.00;;;5.20;99.90;;;;;;5014737;28;20028;-82
2021/12/25 03:46:44;;;;;;;95.07;45.78;;;5.30;99.90;;;;;;5026504;28;20034;-82
2021/12/25 03:49:25;;;;;;;96.72;43.75;;;5.30;99.90;;;;;;5032472;28;20025;-82
2021/12/25 04:00:06;;;;;;;90.38;43.45;;;5.30;99.90;;;;;;5029399;28;20392;-82
2021/12/25 04:02:38;;;;;;;97.75;46.63;;;5.30;99.90;;;;;;5032224;28;20022;-82
2021/12/25 04:05:06;;;;;;;98.65;46.42;;;5.30;99.90;;;;;;5014525;28;20060;-81
2021/12/25 04:10:16;;;;;;;91.28;44.70;;;5.20;99.90;;;;;;5026564;28;20032;-81
2021/12/25 04:12:42;;;;;;;97.88;47.67;;;5.20;99.90;;;;;;5032339;28;20044;-81
2021/12/25 04:15:08;;;;;;;98.15;45.33;;;5.20;99.90;;;;;;5032123;28;20053;-82
2021/12/25 04:17:34;;;;;;;88.20;42.85;;;5.20;99.90;;;;;;5031667;28;20626;-82
2021/12/25 04:20:03;;;;;;;93.82;45.90;;;5.20;99.90;;;;;;5031826;28;20026;-82
2021/12/25 04:22:37;;;;;;;99.75;45.10;;;5.20;99.90;;;;;;5017020;28;20044;-82
2021/12/25 04:25:03;;;;;;;100.50;46.10;;;5.10;99.90;;;;;;5030780;28;20133;-82
2021/12/25 04:27:29;;;;;;;95.32;45.70;;;5.10;99.90;;;;;;5035235;28;20037;-81
2021/12/25 04:50:05;;;;;;;90.07;44.65;;;5.20;99.90;;;;;;5032273;28;20036;-82
2021/12/25 05:03:37;;;;;;;101.88;47.42;;;5.10;99.90;;;;;;5022138;28;20036;-81
2021/12/25 05:06:03;;;;;;;98.68;46.33;;;5.10;99.90;;;;;;5017423;28;20025;-82
2021/12/25 05:08:29;;;;;;;101.10;46.80;;;5.20;99.90;;;;;;5035107;28;20168;-81
2021/12/25 05:10:54;;;;;;;96.95;46.53;;;5.20;99.90;;;;;;5029507;28;20033;-81
2021/12/25 05:13:21;;;;;;;94.32;44.85;;;5.20;99.90;;;;;;5034733;28;20034;-82
2021/12/25 05:15:47;;;;;;;96.40;45.60;;;5.20;99.90;;;;;;5035165;28;20426;-82
2021/12/25 05:18:13;;;;;;;88.95;44.55;;;5.20;99.90;;;;;;5034997;28;20483;-82
2021/12/25 05:20:39;;;;;;;94.18;46.80;;;5.20;99.90;;;;;;5016986;28;20034;-82
2021/12/25 05:23:05;;;;;;;96.80;45.60;;;5.20;99.90;;;;;;5017188;28;20040;-82
2021/12/25 05:25:33;;;;;;;94.97;46.65;;;5.20;99.90;;;;;;5034729;28;20427;-82
2021/12/25 05:28:00;;;;;;;94.13;45.60;;;5.20;99.90;;;;;;5016827;28;20040;-82
2021/12/25 05:30:26;;;;;;;89.55;44.50;;;5.20;99.90;;;;;;5011030;28;20372;-82
2021/12/25 05:32:52;;;;;;;90.18;45.13;;;5.30;99.90;;;;;;5034454;28;20124;-82
2021/12/25 05:35:18;;;;;;;92.57;46.83;;;5.30;99.90;;;;;;5017037;28;20052;-82
2021/12/25 05:37:44;;;;;;;95.25;45.95;;;5.30;99.90;;;;;;5016965;28;20060;-82
2021/12/25 05:40:12;;;;;;;92.63;45.25;;;5.30;99.90;;;;;;5034332;28;20082;-81
2021/12/25 05:42:37;;;;;;;99.97;47.78;;;5.30;99.90;;;;;;5034318;28;20479;-82
2021/12/25 05:45:04;;;;;;;94.10;45.08;;;5.30;99.90;;;;;;5034602;28;20058;-82
2021/12/25 05:47:30;;;;;;;93.47;45.45;;;5.30;99.90;;;;;;5016765;28;20021;-82
2021/12/25 05:49:55;;;;;;;89.45;43.78;;;5.30;99.90;;;;;;5034196;28;20028;-82
2021/12/25 05:52:21;;;;;;;90.40;44.80;;;5.30;99.90;;;;;;5034176;28;20390;-82
2021/12/25 05:54:47;;;;;;;95.30;46.50;;;5.30;99.90;;;;;;5034317;28;20033;-82
2021/12/25 05:57:12;;;;;;;88.18;45.65;;;5.30;99.90;;;;;;5034311;28;20018;-82
2021/12/25 05:59:38;;;;;;;90.32;45.08;;;5.30;99.90;;;;;;5016596;28;20884;-81
2021/12/25 06:02:04;;;;;;;91.85;44.88;;;5.30;99.90;;;;;;5033786;28;20026;-82
2021/12/25 06:04:30;;;;;;;96.22;45.85;;;5.40;99.90;;;;;;5016490;28;20444;-82
2021/12/25 06:06:56;;;;;;;95.25;45.75;;;5.40;99.90;;;;;;5034227;28;20029;-82
2021/12/25 06:09:22;;;;;;;89.18;44.45;;;5.30;99.90;;;;;;5033919;28;20095;-81
2021/12/25 06:11:47;;;;;;;84.57;44.47;;;5.40;99.90;;;;;;5033931;28;20057;-82
2021/12/25 06:14:19;;;;;;;87.95;42.67;;;5.40;99.90;;;;;;5033830;28;20116;-82
2021/12/25 06:16:45;;;;;;;90.55;44.70;;;5.40;99.90;;;;;;5034000;28;20024;-82
2021/12/25 06:19:11;;;;;;;88.40;43.67;;;5.40;99.90;;;;;;5015927;28;20385;-82
2021/12/25 06:21:37;;;;;;;86.35;44.10;;;5.40;99.90;;;;;;5016026;28;20021;-82
2021/12/25 06:24:05;;;;;;;88.78;44.35;;;5.40;99.90;;;;;;5033565;28;20029;-82
2021/12/25 06:26:32;;;;;;;87.28;43.78;;;5.40;99.90;;;;;;5033773;28;20046;-83
2021/12/25 06:28:58;;;;;;;90.68;44.80;;;5.40;99.90;;;;;;5033385;28;20068;-82
2021/12/25 06:31:24;;;;;;;85.38;42.67;;;5.40;99.90;;;;;;5015576;28;20057;-82
2021/12/25 06:33:50;;;;;;;88.10;44.03;;;5.40;99.90;;;;;;5033349;28;20021;-82
2021/12/25 06:36:16;;;;;;;83.57;43.63;;;5.40;99.90;;;;;;5033322;28;20148;-82
2021/12/25 06:38:42;;;;;;;86.47;42.47;;;5.30;99.90;;;;;;5015776;28;20510;-82
2021/12/25 06:41:10;;;;;;;87.00;44.75;;;5.40;99.90;;;;;;5033322;28;20034;-82
2021/12/25 06:43:36;;;;;;;92.65;45.08;;;5.40;99.90;;;;;;5032693;28;20036;-82
2021/12/25 06:46:02;;;;;;;86.40;44.60;;;5.40;99.90;;;;;;5033156;28;20030;-82
2021/12/25 06:48:28;;;;;;;96.93;44.70;;;5.40;99.90;;;;;;5033061;28;20032;-82
2021/12/25 06:50:54;;;;;;;87.03;42.88;;;5.40;99.90;;;;;;5032829;28;20018;-82
2021/12/25 06:53:20;;;;;;;92.25;44.80;;;5.40;99.90;;;;;;5033058;28;20391;-82
2021/12/25 06:55:46;;;;;;;86.95;44.15;;;5.40;99.90;;;;;;5033321;28;20031;-82
2021/12/25 06:58:12;;;;;;;92.10;45.63;;;5.30;99.90;;;;;;5015418;28;20029;-82
2021/12/25 07:00:38;;;;;;;93.32;44.38;;;5.40;99.90;;;;;;5032652;28;20044;-82
2021/12/25 07:03:04;;;;;;;90.50;44.67;;;5.40;99.90;;;;;;5032620;28;20059;-82
2021/12/25 07:05:30;;;;;;;93.80;44.85;;;5.40;99.90;;;;;;5015317;28;20117;-82
2021/12/25 07:07:55;;;;;;;90.93;44.40;;;5.40;99.90;;;;;;5032947;28;20018;-82
2021/12/25 07:10:21;;;;;;;87.70;43.72;;;5.40;99.90;;;;;;5014457;28;20386;-82
2021/12/25 07:12:49;;;;;;;90.75;44.17;;;5.40;99.90;;;;;;5032723;28;20025;-82
2021/12/25 07:15:16;;;;;;;87.95;42.95;;;5.40;99.90;;;;;;5032359;28;20506;-82
2021/12/25 07:17:43;;;;;;;84.03;42.95;;;5.40;99.90;;;;;;5015030;28;20029;-82
2021/12/25 07:20:09;;;;;;;80.43;43.13;;;5.40;99.90;;;;;;5030933;28;20036;-81
2021/12/25 07:22:35;;;;;;;85.82;44.13;;;5.40;99.90;;;;;;5028330;28;20502;-82
2021/12/25 07:25:02;;;;;;;79.55;42.58;;;5.40;99.90;;;;;;5032211;28;20045;-82
2021/12/25 07:27:28;;;;;;;80.60;41.72;;;5.40;99.90;;;;;;5032545;28;20079;-82
2021/12/25 07:29:53;;;;;;;80.93;40.78;;;5.50;99.90;;;;;;5031824;28;20033;-82
2021/12/25 07:32:19;;;;;;;80.10;42.58;;;5.50;99.90;;;;;;5031566;28;20506;-82
2021/12/25 07:34:46;;;;;;;83.40;42.25;;;5.40;99.90;;;;;;5031355;28;20496;-81
2021/12/25 07:37:13;;;;;;;103.97;49.13;;;5.50;99.90;;;;;;5031651;28;20022;-82
2021/12/25 07:39:40;;;;;;;106.82;49.13;;;5.50;99.90;;;;;;5032241;28;20029;-82
2021/12/25 07:42:06;;;;;;;110.75;49.03;;;5.50;99.90;;;;;;5031920;28;20028;-82
2021/12/25 07:44:32;;;;;;;95.82;47.80;;;5.50;99.90;;;;;;5016769;28;20419;-82
2021/12/25 07:46:58;;;;;;;90.20;44.42;;;5.50;99.90;;;;;;5032055;28;20543;-82
2021/12/25 07:49:24;;;;;;;91.72;44.92;;;5.50;99.90;;;;;;5019019;28;20043;-82
2021/12/25 07:51:50;;;;;;;86.28;42.55;;;5.50;99.90;;;;;;5028015;28;20670;-82
2021/12/25 07:54:16;;;;;;;86.22;42.38;;;5.40;99.90;;;;;;5031289;28;20059;-82
2021/12/25 07:56:42;;;;;;;89.32;45.25;;;5.40;99.90;;;;;;5033280;28;20076;-82
2021/12/25 07:59:07;;;;;;;84.10;42.55;;;5.50;99.90;;;;;;5035729;28;20029;-82
2021/12/25 08:01:35;;;;;;;91.38;43.15;;;5.50;99.90;;;;;;5035451;28;20018;-82
2021/12/25 08:04:02;;;;;;;85.55;44.47;;;5.50;99.90;;;;;;5035775;28;20029;-82
2021/12/25 08:06:30;;;;;;;88.00;42.63;;;5.50;99.90;;;;;;5035884;28;20029;-82
2021/12/25 08:08:59;;;;;;;86.05;43.00;;;5.50;99.90;;;;;;5035834;28;20021;-81
2021/12/25 08:11:25;;;;;;;89.53;44.13;;;5.60;99.90;;;;;;5035064;28;20479;-81
2021/12/25 08:13:51;;;;;;;94.30;46.05;;;5.50;99.90;;;;;;5036052;28;20033;-80
2021/12/25 08:16:17;;;;;;;94.60;45.42;;;5.50;99.90;;;;;;5035505;28;20479;-81
2021/12/25 08:18:42;;;;;;;89.18;43.92;;;5.50;99.90;;;;;;5021699;28;20491;-80
2021/12/25 08:21:08;;;;;;;77.00;42.00;;;5.50;99.90;;;;;;5035618;28;20383;-81
2021/12/25 08:23:34;;;;;;;88.38;43.45;;;5.50;99.90;;;;;;5035825;28;20083;-81
2021/12/25 08:26:01;;;;;;;88.63;43.40;;;5.50;99.90;;;;;;5022462;28;20602;-81
2021/12/25 08:28:27;;;;;;;92.57;43.65;;;5.50;99.90;;;;;;5035812;28;20036;-81
2021/12/25 08:30:52;;;;;;;90.40;43.15;;;5.50;99.90;;;;;;5035769;28;20105;-81
2021/12/25 08:33:18;;;;;;;86.10;42.15;;;5.50;99.90;;;;;;5032633;28;20721;-80
2021/12/25 08:35:44;;;;;;;80.45;40.53;;;5.50;99.90;;;;;;5029427;28;20579;-80
2021/12/25 08:38:11;;;;;;;80.80;41.05;;;5.40;99.90;;;;;;5032546;28;20057;-81
2021/12/25 08:40:41;;;;;;;80.88;41.35;;;5.40;99.90;;;;;;5032849;28;20021;-80
2021/12/25 08:43:07;;;;;;;82.25;41.97;;;5.40;99.90;;;;;;5032654;28;20030;-81
2021/12/25 08:45:49;;;;;;;85.05;40.38;;;5.50;99.90;;;;;;5031474;28;20119;-81
2021/12/25 08:48:23;;;;;;;80.63;39.88;;;5.50;99.90;;;;;;5014779;28;20450;-81
2021/12/25 08:50:53;;;;;;;83.88;42.17;;;5.50;99.90;;;;;;5029104;28;20029;-81
2021/12/25 08:53:20;;;;;;;82.88;40.90;;;5.60;99.90;;;;;;5033552;28;20036;-81
2021/12/25 08:55:48;;;;;;;80.18;40.17;;;5.60;99.90;;;;;;5033191;28;20049;-81
2021/12/25 08:58:14;;;;;;;79.78;39.72;;;5.60;99.90;;;;;;5033695;28;20029;-80
2021/12/25 09:00:40;;;;;;;78.45;40.00;;;5.60;99.90;;;;;;5022228;28;20032;-81
2021/12/25 09:03:06;;;;;;;82.18;40.38;;;5.70;99.90;;;;;;5033388;28;20052;-75
2021/12/25 09:05:32;;;;;;;77.72;40.05;;;5.60;99.90;;;;;;5031120;28;20032;-75
2021/12/25 09:07:59;;;;;;;80.38;41.75;;;5.60;99.90;;;;;;5012645;28;20053;-75
2021/12/25 09:10:28;;;;;;;79.38;40.22;;;5.60;99.90;;;;;;5018035;28;20387;-75
2021/12/25 09:12:54;;;;;;;82.18;40.13;;;5.70;99.90;;;;;;5014688;28;20033;-75
2021/12/25 09:15:19;;;;;;;82.18;42.58;;;5.70;99.90;;;;;;5028397;28;20033;-75
2021/12/25 09:17:46;;;;;;;76.50;39.42;;;5.60;99.90;;;;;;5029986;28;20113;-75
2021/12/25 09:20:20;;;;;;;83.10;41.72;;;5.70;99.90;;;;;;5029339;28;20091;-75
2021/12/25 09:22:46;;;;;;;85.40;41.03;;;5.70;99.90;;;;;;5029891;28;20079;-74
2021/12/25 09:25:13;;;;;;;86.43;43.65;;;5.70;99.90;;;;;;5012981;28;20045;-74
2021/12/25 09:27:38;;;;;;;83.30;42.22;;;5.70;99.90;;;;;;5020648;28;20636;-74
2021/12/25 09:30:06;;;;;;;84.32;41.55;;;5.80;99.90;;;;;;5031639;28;20060;-75
2021/12/25 09:32:32;;;;;;;77.53;39.67;;;5.80;99.90;;;;;;5031075;28;20022;-75
2021/12/25 09:35:01;;;;;;;83.63;38.65;;;5.80;99.90;;;;;;5012047;28;20030;-75
2021/12/25 09:37:28;;;;;;;76.20;40.42;;;5.90;99.90;;;;;;5014887;28;20032;-74
2021/12/25 09:39:57;;;;;;;79.35;39.33;;;5.90;99.90;;;;;;5032561;28;20116;-75
2021/12/25 09:42:25;;;;;;;80.20;40.13;;;5.90;99.90;;;;;;5018614;28;20056;-74
2021/12/25 09:44:54;;;;;;;83.88;41.22;;;5.90;99.90;;;;;;5033651;28;20018;-75
2021/12/25 09:47:21;;;;;;;81.97;40.97;;;5.90;99.90;;;;;;5033451;28;20026;-74
2021/12/25 09:49:47;;;;;;;79.05;40.78;;;5.90;99.90;;;;;;5033885;28;20091;-75
2021/12/25 09:52:13;;;;;;;82.45;41.15;;;6.00;99.90;;;;;;5033082;28;20383;-74
2021/12/25 09:54:39;;;;;;;85.00;42.67;;;6.00;99.90;;;;;;5033250;28;20021;-75
2021/12/25 09:57:06;;;;;;;89.00;43.97;;;6.00;99.90;;;;;;5033053;28;20835;-75
2021/12/25 09:59:32;;;;;;;83.95;42.35;;;6.00;99.90;;;;;;5033312;28;20025;-74
2021/12/25 10:02:00;;;;;;;86.50;43.17;;;6.00;99.90;;;;;;5032434;28;20116;-75
2021/12/25 10:04:29;;;;;;;84.80;41.60;;;6.00;99.90;;;;;;5029457;28;20025;-75
2021/12/25 10:06:56;;;;;;;90.55;45.35;;;6.00;99.90;;;;;;5017347;28;20104;-80
2021/12/25 10:09:25;;;;;;;88.25;45.55;;;6.00;99.90;;;;;;5016194;28;20033;-80
2021/12/25 10:12:04;;;;;;;92.60;43.97;;;6.10;99.90;;;;;;5015645;28;20028;-80
2021/12/25 10:14:30;;;;;;;94.03;44.70;;;6.10;99.90;;;;;;5033602;28;20419;-81
2021/12/25 10:16:56;;;;;;;84.63;43.13;;;6.10;99.90;;;;;;5033515;28;20025;-80
2021/12/25 10:19:27;;;;;;;88.22;43.78;;;6.10;99.90;;;;;;5032518;28;20498;-80
2021/12/25 10:22:08;;;;;;;89.45;43.40;;;6.20;99.90;;;;;;5010482;28;20043;-80
2021/12/25 10:24:41;;;;;;;81.57;40.50;;;6.20;99.90;;;;;;5015158;28;20033;-80
2021/12/25 10:27:10;;;;;;;82.38;39.83;;;6.20;99.90;;;;;;5033297;28;20030;-80
2021/12/25 10:29:36;;;;;;;79.28;39.20;;;6.20;99.90;;;;;;5027721;28;20037;-80
2021/12/25 10:32:22;;;;;;;75.75;39.72;;;6.20;99.90;;;;;;5033080;28;20029;-80
2021/12/25 10:34:49;;;;;;;80.13;40.83;;;6.20;99.90;;;;;;5030098;28;20043;-81
2021/12/25 10:37:17;;;;;;;84.50;42.95;;;6.20;99.90;;;;;;5015255;28;20541;-80
2021/12/25 10:39:44;;;;;;;87.07;42.78;;;6.20;99.90;;;;;;5033166;28;20033;-81
2021/12/25 10:42:16;;;;;;;86.78;42.50;;;6.20;99.90;;;;;;5026863;28;20502;-82
2021/12/25 10:44:42;;;;;;;;;;;6.20;99.90;;;;;;5014827;28;20065;-81
2021/12/25 10:47:14;;;;;;;87.97;42.22;;;6.10;99.90;;;;;;5032514;28;19939;-81
2021/12/25 10:50:09;;;;;;;86.63;43.25;;;6.10;99.90;;;;;;5032213;28;20033;-81
2021/12/25 10:52:47;;;;;;;87.55;44.83;;;6.10;99.90;;;;;;5032246;28;20033;-79
2021/12/25 10:55:25;;;;;;;92.45;43.78;;;6.10;99.90;;;;;;5032540;28;20017;-79
2021/12/25 10:58:04;;;;;;;89.55;43.47;;;6.10;99.90;;;;;;5033257;28;20034;-80
2021/12/25 11:00:33;;;;;;;78.97;39.22;;;6.10;99.90;;;;;;5032667;28;20029;-75
2021/12/25 11:03:06;;;;;;;85.63;40.22;;;6.10;99.90;;;;;;5013592;28;20546;-75
2021/12/25 11:05:34;;;;;;;81.70;39.88;;;6.10;99.90;;;;;;5017785;28;20021;-75
2021/12/25 11:08:02;;;;;;;83.88;43.42;;;6.20;99.90;;;;;;5031544;28;20032;-75
2021/12/25 11:10:31;;;;;;;81.30;42.85;;;6.20;99.90;;;;;;5032780;28;20041;-75
2021/12/25 11:12:58;;;;;;;83.05;41.60;;;6.20;99.90;;;;;;5031796;28;20510;-75
2021/12/25 11:15:33;;;;;;;78.32;40.50;;;6.20;99.90;;;;;;5031795;28;20372;-75
2021/12/25 11:18:07;;;;;;;86.03;44.75;;;6.20;99.90;;;;;;5026369;28;20049;-75
2021/12/25 11:20:36;;;;;;;95.68;46.00;;;6.20;99.90;;;;;;5014769;28;20021;-75
2021/12/25 11:23:04;;;;;;;93.65;47.17;;;6.30;99.90;;;;;;5031472;28;20049;-75
2021/12/25 11:25:31;;;;;;;94.43;44.13;;;6.20;99.90;;;;;;5031265;28;20053;-75
2021/12/25 11:27:58;;;;;;;91.10;44.22;;;6.30;99.90;;;;;;5018608;28;20052;-75
2021/12/25 11:30:27;;;;;;;79.57;41.65;;;6.30;99.90;;;;;;5033218;28;20025;-75
2021/12/25 11:32:54;;;;;;;82.40;41.80;;;6.30;99.90;;;;;;5032544;28;20026;-75
2021/12/25 11:35:21;;;;;;;76.00;40.53;;;6.30;99.90;;;;;;5032314;28;20025;-75
2021/12/25 11:37:48;;;;;;;77.15;41.10;;;6.30;99.90;;;;;;5032462;28;20026;-75
2021/12/25 11:40:16;;;;;;;89.22;43.45;;;6.30;99.90;;;;;;5032177;28;20112;-75
2021/12/25 11:42:47;;;;;;;90.68;45.25;;;6.30;99.90;;;;;;5032284;28;20029;-76
2021/12/25 11:45:28;;;;;;;86.30;44.00;;;6.40;99.90;;;;;;5020326;28;20037;-75
2021/12/25 11:47:58;;;;;;;89.60;43.75;;;6.40;99.90;;;;;;5014392;28;20124;-75
2021/12/25 11:50:45;;;;;;;91.28;44.00;;;6.30;99.90;;;;;;5031465;28;20104;-75
2021/12/25 11:53:29;;;;;;;83.68;41.28;;;6.30;99.90;;;;;;5032077;28;20056;-75
2021/12/25 11:56:45;;;;;;;86.97;44.58;;;6.30;99.90;;;;;;5032374;28;20025;-75
2021/12/25 11:59:14;;;;;;;80.75;42.38;;;6.30;99.90;;;;;;5029561;28;20037;-75
2021/12/25 12:01:48;;;;;;;79.88;40.13;;;6.20;99.90;;;;;;5032127;28;20065;-75
2021/12/25 12:04:24;;;;;;;80.63;41.90;;;6.20;99.90;;;;;;5026518;28;20083;-75
2021/12/25 12:06:57;;;;;;;85.28;43.15;;;6.30;99.90;;;;;;5012957;28;20061;-75
2021/12/25 12:09:30;;;;;;;70.88;38.75;;;6.30;99.90;;;;;;5027128;28;20026;-75
2021/12/25 12:12:04;;;;;;;73.43;38.83;;;6.30;99.90;;;;;;5029278;28;20083;-75
2021/12/25 12:14:31;;;;;;;69.45;37.40;;;6.40;99.90;;;;;;5030104;28;20475;-75
2021/12/25 12:17:21;;;;;;;65.95;35.90;;;6.30;99.90;;;;;;5032477;28;20091;-81
2021/12/25 12:19:50;;;;;;;73.25;38.50;;;6.30;99.90;;;;;;5018617;28;20056;-81
2021/12/25 12:22:27;;;;;;;70.72;35.58;;;6.30;99.90;;;;;;5032334;28;20112;-81
2021/12/25 12:25:46;;;;;;;68.18;35.53;;;6.40;99.90;;;;;;5014515;28;20048;-81
2021/12/25 12:28:12;;;;;;;74.72;37.97;;;6.50;99.90;;;;;;5010318;28;20059;-81
2021/12/25 12:30:45;;;;;;;73.53;38.95;;;6.50;99.90;;;;;;5032087;28;20040;-80
2021/12/25 12:33:14;;;;;;;66.90;36.17;;;6.50;99.90;;;;;;5032334;28;20025;-81
2021/12/25 12:35:42;;;;;;;68.32;35.15;;;6.50;99.90;;;;;;5014518;28;20491;-81
2021/12/25 12:38:38;;;;;;;72.18;36.10;;;6.50;99.90;;;;;;5032483;28;20375;-81
2021/12/25 12:41:11;;;;;;;68.03;34.30;;;6.60;99.90;;;;;;5029547;28;20112;-81
2021/12/25 12:44:10;;;;;;;70.45;35.58;;;6.50;99.90;;;;;;5018318;28;20033;-81
2021/12/25 12:46:48;;;;;;;68.80;36.30;;;6.50;99.90;;;;;;5032691;28;20159;-80
2021/12/25 12:49:35;;;;;;;77.25;40.67;;;6.50;99.90;;;;;;5035645;28;20029;-80
2021/12/25 12:52:14;;;;;;;82.57;42.47;;;6.50;99.90;;;;;;5027339;28;20072;-81
2021/12/25 12:54:48;;;;;;;68.18;35.83;;;6.50;99.90;;;;;;5035588;28;20021;-80
2021/12/25 12:57:19;;;;;;;57.90;31.15;;;6.60;99.90;;;;;;5035521;28;20022;-80
2021/12/25 12:59:50;;;;;;;61.25;31.38;;;6.50;99.90;;;;;;5035654;28;20529;-81
2021/12/25 13:02:18;;;;;;;56.42;30.20;;;6.50;99.90;;;;;;5035306;28;20033;-80
2021/12/25 13:05:00;;;;;;;58.83;31.08;;;6.50;99.90;;;;;;5034770;28;20017;-75
2021/12/25 13:07:32;;;;;;;57.22;29.73;;;6.50;99.90;;;;;;5018881;28;20021;-75
2021/12/25 13:10:01;;;;;;;;;;;6.50;99.90;;;;;;5021526;28;20033;-75
2021/12/25 13:12:37;;;;;;;53.85;29.60;;;6.60;99.90;;;;;;5033827;28;19912;-75
2021/12/25 13:15:15;;;;;;;53.10;28.75;;;6.60;99.90;;;;;;5032565;28;20079;-75
2021/12/25 13:17:56;;;;;;;50.88;29.77;;;6.60;99.90;;;;;;5019730;28;20021;-75
2021/12/25 13:20:52;;;;;;;52.65;28.45;;;6.60;99.90;;;;;;5031942;28;20029;-75
2021/12/25 13:23:19;;;;;;;49.95;29.95;;;6.50;99.90;;;;;;5016325;28;20511;-75
2021/12/25 13:25:56;;;;;;;51.42;28.48;;;6.50;99.90;;;;;;5034171;28;20081;-75
2021/12/25 13:28:23;;;;;;;51.75;30.27;;;6.60;99.90;;;;;;5034216;28;20103;-75
2021/12/25 13:30:54;;;;;;;57.47;30.95;;;6.50;99.90;;;;;;5035120;28;20374;-75
2021/12/25 13:33:23;;;;;;;55.10;29.77;;;6.50;99.90;;;;;;5016965;28;20116;-75
2021/12/25 13:36:08;;;;;;;55.58;31.05;;;6.50;99.90;;;;;;5032290;28;20029;-75
2021/12/25 13:38:56;;;;;;;70.38;39.10;;;6.50;99.90;;;;;;5033770;28;20025;-75
2021/12/25 13:41:43;;;;;;;65.13;35.55;;;6.60;99.90;;;;;;5016685;28;20041;-75
2021/12/25 13:44:19;;;;;;;60.72;31.35;;;6.60;99.90;;;;;;5023799;28;20029;-75
2021/12/25 13:46:57;;;;;;;57.40;29.20;;;6.50;99.90;;;;;;5029308;28;20017;-75
2021/12/25 13:49:28;;;;;;;59.30;31.95;;;6.60;99.90;;;;;;5032800;28;20387;-75
2021/12/25 13:51:55;;;;;;;57.58;29.95;;;6.60;99.90;;;;;;5033062;28;20035;-75
2021/12/25 13:54:22;;;;;;;57.97;30.02;;;6.60;99.90;;;;;;5033570;28;20455;-75
2021/12/25 13:56:54;;;;;;;58.63;33.20;;;6.50;99.90;;;;;;5014628;28;20056;-75
2021/12/25 13:59:20;;;;;;;63.20;35.67;;;6.60;99.90;;;;;;5017107;28;20025;-75
2021/12/25 14:02:01;;;;;;;69.28;34.03;;;6.60;99.90;;;;;;5033217;28;20030;-75
2021/12/25 14:04:27;;;;;;;61.28;34.08;;;6.50;99.90;;;;;;5025369;28;20037;-75